Currently 49°F in Riverside (Orangecrest), California, USA
49°F
49°F / 45°F
8 mph SW
0.00"
Sunday, January 29, 2023 10:36 AM PST

Riverside (Orangecrest), California Weather Summary
Last 36 Hours

Temperature Winds Hourly Humidity Dewpoint
Time Report Norm Report Norm Max Gusts Precip. Rpt. Norm Rpt. Norm Pressure
1Sun 10:36 AM  48.7°F  59°F  8 mph SW  4 mph  11 mph  0.00"  82%  38%  43°F  33°F  N/A
2Sun 10:33 AM  49.1°F  59°F  5 mph SW  4 mph  10 mph  ----  82%  38%  44°F  33°F  N/A
Sun 10:00 AM  48.1°F  57°F  3 mph SW  5 mph  9 mph  0.00"  85%  42%  44°F  33°F  N/A
Sun 09:00 AM  47.3°F  54°F  2 mph SW  3 mph  7 mph  0.00"  87%  47%  43°F  34°F  N/A
Sun 08:00 AM  46.2°F  51°F  2 mph SW  3 mph  8 mph  0.00"  88%  49%  43°F  32°F  N/A
3Sun 07:09 AM  45.4°F  50°F  6 mph SW  3 mph  8 mph  ----  88%  50%  42°F  31°F  N/A
Sun 07:00 AM  45.7°F  50°F  4 mph SW  3 mph  6 mph  0.00"  88%  50%  42°F  31°F  N/A
Sun 06:00 AM  46.2°F  51°F  4 mph SW  3 mph  7 mph  0.00"  86%  49%  42°F  31°F  N/A
Sun 05:00 AM  46.1°F  51°F  calm  3 mph  8 mph  0.00"  84%  49%  41°F  32°F  N/A
Sun 04:00 AM  46.7°F  51°F  5 mph SW  2 mph  15 mph  0.00"  83%  48%  41°F  32°F  N/A
Sun 03:00 AM  46.7°F  52°F  7 mph SW  3 mph  11 mph  0.00"  80%  48%  41°F  32°F  N/A
Sun 02:00 AM  47.4°F  53°F  3 mph SW  2 mph  9 mph  0.00"  77%  47%  40°F  32°F  N/A
Sun 01:00 AM  47.6°F  53°F  4 mph SW  3 mph  9 mph  0.00"  77%  47%  41°F  32°F  N/A
Sun 12:00 AM  48.0°F  54°F  3 mph SW  3 mph  6 mph  0.00"  84%  46%  43°F  33°F  N/A
Sat 11:00 PM  48.0°F  55°F  calm  3 mph  3 mph  0.00"  85%  45%  43°F  33°F  N/A
Sat 10:00 PM  48.5°F  55°F  calm  2 mph  7 mph  0.00"  84%  43%  44°F  33°F  N/A
Sat 09:00 PM  48.9°F  56°F  3 mph SW  3 mph  10 mph  0.00"  82%  42%  43°F  32°F  N/A
Sat 08:00 PM  49.8°F  57°F  2 mph SW  3 mph  3 mph  0.00"  77%  41%  43°F  32°F  N/A
Sat 07:00 PM  51.1°F  58°F  1 mph SW  3 mph  6 mph  0.00"  73%  38%  42°F  31°F  N/A
Sat 06:00 PM  53.9°F  59°F  3 mph SW  4 mph  6 mph  0.00"  62%  36%  41°F  31°F  N/A
Sat 05:00 PM  57.2°F  62°F  2 mph SW  5 mph  6 mph  0.00"  46%  33%  36°F  31°F  N/A
Sat 04:00 PM  59.0°F  64°F  4 mph SW  5 mph  8 mph  0.00"  47%  30%  38°F  31°F  N/A
Sat 03:00 PM  59.5°F  65°F  4 mph SW  5 mph  10 mph  0.00"  47%  28%  39°F  30°F  N/A
Sat 02:00 PM  60.0°F  65°F  2 mph SW  4 mph  7 mph  0.00"  48%  28%  39°F  30°F  N/A
Sat 01:00 PM  58.0°F  64°F  4 mph SW  5 mph  9 mph  0.00"  54%  29%  41°F  30°F  N/A
Sat 12:00 PM  54.4°F  63°F  3 mph SW  4 mph  8 mph  0.00"  61%  30%  41°F  30°F  N/A
Sat 11:00 AM  52.0°F  61°F  4 mph SW  4 mph  11 mph  0.00"  69%  35%  42°F  32°F  N/A
Sat 10:00 AM  48.1°F  58°F  7 mph SW  4 mph  12 mph  0.00"  79%  41%  42°F  33°F  N/A
Sat 09:00 AM  43.8°F  54°F  5 mph SW  3 mph  10 mph  0.00"  78%  46%  37°F  33°F  N/A
Sat 08:00 AM  42.6°F  51°F  4 mph SW  3 mph  6 mph  0.00"  71%  48%  34°F  32°F  N/A
Sat 07:00 AM  41.7°F  50°F  3 mph SW  3 mph  5 mph  0.00"  68%  49%  31°F  31°F  N/A
Sat 06:00 AM  43.0°F  51°F  3 mph SW  3 mph  5 mph  0.00"  65%  48%  31°F  31°F  N/A
Sat 05:00 AM  42.3°F  51°F  calm  3 mph  6 mph  0.00"  68%  48%  32°F  31°F  N/A
Sat 04:00 AM  43.7°F  51°F  3 mph SW  3 mph  8 mph  0.00"  63%  48%  31°F  31°F  N/A
Sat 03:00 AM  44.8°F  52°F  3 mph SW  3 mph  5 mph  0.00"  64%  47%  33°F  32°F  N/A
Sat 02:00 AM  45.1°F  52°F  3 mph SW  3 mph  6 mph  0.00"  64%  46%  33°F  32°F  N/A
Sat 01:00 AM  46.0°F  53°F  3 mph SW  3 mph  7 mph  0.00"  61%  46%  33°F  32°F  N/A
Sat 12:00 AM  47.6°F  53°F  3 mph SW  3 mph  4 mph  0.00"  55%  45%  31°F  32°F  N/A
Fri 11:00 PM  50.4°F  54°F  calm  3 mph  5 mph  0.00"  50%  44%  32°F  32°F  N/A

  1. Current weather data. No green row appears if the current weather data is also the high or low for the current day.
  2. High temperature for the current day.
  3. Low temperature for the current day.

The Riverside (Orangecrest), California weather pages are a service of WeatherCurrents.
Copyright ©2023  WeatherCurrents. All rights reserved. - Submit questions and comments - Privacy Policy

This page automatically refreshes every 10 minutes.